createdAt,value
2019-03-15T00:00:46.923Z,82.96
2019-03-15T00:01:46.892Z,83.37
2019-03-15T00:02:46.875Z,82.96
2019-03-15T00:03:46.899Z,82.86
2019-03-15T00:04:46.857Z,82.86
2019-03-15T00:05:46.919Z,82.86
2019-03-15T00:06:46.858Z,83.06
2019-03-15T00:07:46.796Z,83.06
2019-03-15T00:08:46.809Z,83.06
2019-03-15T00:09:46.776Z,83.17
2019-03-15T00:10:46.768Z,82.96
2019-03-15T00:11:46.797Z,82.96
2019-03-15T00:12:47.278Z,82.75
2019-03-15T00:13:46.739Z,83.17
2019-03-15T00:14:46.742Z,83.27
2019-03-15T00:15:46.731Z,83.27
2019-03-15T00:16:46.730Z,83.17
2019-03-15T00:17:46.768Z,82.86
2019-03-15T00:18:47.047Z,82.96
2019-03-15T00:19:46.716Z,83.17
2019-03-15T00:20:46.682Z,83.27
2019-03-15T00:21:46.685Z,83.48
2019-03-15T00:22:46.650Z,82.75
2019-03-15T00:23:46.671Z,82.55
2019-03-15T00:24:46.652Z,82.03
2019-03-15T00:25:46.621Z,82.65
2019-03-15T00:26:46.669Z,82.65
2019-03-15T00:27:46.620Z,82.55
2019-03-15T00:28:46.625Z,82.45
2019-03-15T00:29:46.569Z,82.24
2019-03-15T00:30:46.544Z,82.65
2019-03-15T00:31:46.611Z,82.24
2019-03-15T00:32:46.568Z,82.65
2019-03-15T00:33:46.532Z,81.93
2019-03-15T00:34:46.610Z,82.14
2019-03-15T00:35:46.545Z,82.34
2019-03-15T00:36:46.513Z,82.65
2019-03-15T00:37:46.516Z,82.51
2019-03-15T00:38:46.485Z,82.51
2019-03-15T00:39:47.480Z,82.14
2019-03-15T00:40:46.617Z,82.24
2019-03-15T00:41:46.467Z,82.55
2019-03-15T00:42:46.441Z,81.68
2019-03-15T00:43:49.206Z,81.93
2019-03-15T00:44:46.461Z,82.10
2019-03-15T00:45:46.440Z,81.82
2019-03-15T00:46:46.480Z,81.99
2019-03-15T00:47:46.429Z,82.20
2019-03-15T00:48:46.423Z,81.82
2019-03-15T00:49:47.086Z,81.58
2019-03-15T00:50:46.345Z,81.37
2019-03-15T00:51:46.333Z,81.37
2019-03-15T00:52:46.384Z,82.20
2019-03-15T00:53:46.313Z,81.82
2019-03-15T00:54:46.303Z,82.14
2019-03-15T00:55:46.285Z,82.24
2019-03-15T00:56:46.263Z,82.24
2019-03-15T00:57:46.290Z,82.24
2019-03-15T00:58:46.343Z,82.24
2019-03-15T00:59:46.268Z,81.93
2019-03-15T01:00:46.278Z,82.24
2019-03-15T01:01:46.248Z,82.14
2019-03-15T01:02:46.212Z,82.14
2019-03-15T01:03:46.273Z,81.82
2019-03-15T01:04:46.213Z,81.82
2019-03-15T01:05:46.200Z,81.72
2019-03-15T01:06:46.150Z,81.93
2019-03-15T01:07:46.184Z,81.72
2019-03-15T01:08:46.214Z,81.72
2019-03-15T01:09:46.133Z,81.93
2019-03-15T01:10:46.154Z,82.14
2019-03-15T01:11:46.114Z,82.14
2019-03-15T01:12:46.106Z,82.24
2019-03-15T01:13:46.100Z,82.24
2019-03-15T01:14:46.141Z,82.03
2019-03-15T01:15:46.078Z,82.03
2019-03-15T01:16:46.068Z,82.03
2019-03-15T01:17:46.059Z,81.51
2019-03-15T01:18:46.068Z,82.14
2019-03-15T01:19:46.031Z,82.14
2019-03-15T01:20:46.055Z,82.24
2019-03-15T01:21:46.051Z,82.24
2019-03-15T01:22:46.011Z,82.14
2019-03-15T01:23:46.012Z,82.24
2019-03-15T01:24:45.971Z,81.51
2019-03-15T01:25:45.986Z,81.62
2019-03-15T01:26:45.965Z,81.51
2019-03-15T01:27:45.963Z,81.93
2019-03-15T01:28:45.922Z,81.51
2019-03-15T01:29:45.955Z,81.51
2019-03-15T01:30:45.896Z,81.62
2019-03-15T01:31:45.917Z,81.51
2019-03-15T01:32:45.952Z,81.31
2019-03-15T01:33:45.906Z,81.72
2019-03-15T01:34:45.907Z,81.62
2019-03-15T01:35:45.884Z,81.62
2019-03-15T01:36:45.869Z,81.82
2019-03-15T01:37:45.862Z,81.62
2019-03-15T01:38:45.830Z,81.96
2019-03-15T01:39:45.865Z,81.82
2019-03-15T01:40:48.670Z,81.51
2019-03-15T01:41:45.790Z,81.82
2019-03-15T01:42:45.802Z,82.34
2019-03-15T01:43:45.792Z,81.76
2019-03-15T01:44:45.755Z,82.14
2019-03-15T01:45:45.777Z,81.93
2019-03-15T01:46:45.737Z,81.56
2019-03-15T01:47:45.736Z,81.56
2019-03-15T01:48:45.763Z,81.35
2019-03-15T01:49:45.763Z,81.51
2019-03-15T01:50:45.729Z,81.66
2019-03-15T01:51:45.688Z,81.93
2019-03-15T01:52:45.697Z,82.14
2019-03-15T01:53:45.658Z,81.04
2019-03-15T01:54:45.741Z,81.31
2019-03-15T01:55:45.651Z,81.56
2019-03-15T01:56:45.636Z,81.14
2019-03-15T01:57:45.623Z,81.10
2019-03-15T01:58:45.615Z,81.10
2019-03-15T01:59:45.652Z,80.79
2019-03-15T02:00:45.613Z,81.51
2019-03-15T02:01:45.585Z,82.07
2019-03-15T02:02:45.548Z,81.00
2019-03-15T02:03:45.545Z,82.24
2019-03-15T02:04:45.566Z,82.03
2019-03-15T02:05:45.582Z,82.03
2019-03-15T02:06:45.528Z,82.24
2019-03-15T02:07:45.496Z,81.41
2019-03-15T02:08:45.517Z,81.56
2019-03-15T02:09:45.544Z,80.90
2019-03-15T02:10:45.506Z,81.04
2019-03-15T02:11:45.468Z,80.90
2019-03-15T02:12:45.470Z,81.00
2019-03-15T02:13:45.442Z,80.90
2019-03-15T02:14:45.488Z,80.69
2019-03-15T02:15:45.441Z,80.79
2019-03-15T02:16:45.433Z,81.41
2019-03-15T02:17:45.402Z,81.00
2019-03-15T02:18:45.413Z,80.90
2019-03-15T02:19:45.374Z,80.69
2019-03-15T02:20:45.395Z,80.79
2019-03-15T02:21:45.407Z,80.79
2019-03-15T02:22:45.388Z,80.90
2019-03-15T02:23:45.397Z,80.69
2019-03-15T02:24:45.388Z,80.90
2019-03-15T02:25:45.342Z,81.10
2019-03-15T02:26:45.331Z,81.21
2019-03-15T02:27:45.321Z,80.69
2019-03-15T02:28:45.371Z,81.10
2019-03-15T02:29:45.359Z,80.69
2019-03-15T02:30:45.314Z,80.58
2019-03-15T02:31:45.285Z,80.62
2019-03-15T02:32:45.289Z,81.10
2019-03-15T02:33:45.285Z,81.04
2019-03-15T02:34:45.320Z,80.90
2019-03-15T02:35:47.048Z,80.90
2019-03-15T02:36:45.176Z,81.14
2019-03-15T02:37:45.177Z,81.10
2019-03-15T02:38:45.164Z,80.93
2019-03-15T02:39:46.068Z,80.93
2019-03-15T02:40:45.134Z,80.93
2019-03-15T02:41:45.144Z,81.00
2019-03-15T02:42:45.394Z,81.04
2019-03-15T02:43:45.874Z,80.69
2019-03-15T02:44:45.162Z,80.69
2019-03-15T02:45:45.099Z,80.93
2019-03-15T02:46:45.096Z,80.28
2019-03-15T02:47:46.442Z,80.73
2019-03-15T02:48:45.074Z,80.58
2019-03-15T02:49:45.088Z,80.38
2019-03-15T02:50:45.040Z,80.07
2019-03-15T02:51:45.034Z,80.79
2019-03-15T02:52:45.023Z,80.79
2019-03-15T02:53:45.037Z,80.58
2019-03-15T02:54:45.059Z,80.79
2019-03-15T02:55:44.997Z,81.10
2019-03-15T02:56:44.984Z,81.21
2019-03-15T02:57:44.969Z,81.00
2019-03-15T02:58:44.967Z,81.00
2019-03-15T02:59:44.959Z,81.41
2019-03-15T03:00:44.946Z,80.79
2019-03-15T03:01:44.953Z,80.79
2019-03-15T03:02:44.921Z,81.14
2019-03-15T03:03:44.908Z,80.83
2019-03-15T03:04:44.965Z,80.69
2019-03-15T03:05:44.902Z,80.79
2019-03-15T03:06:44.872Z,80.83
2019-03-15T03:07:44.866Z,81.10
2019-03-15T03:08:44.856Z,80.58
2019-03-15T03:09:44.846Z,80.69
2019-03-15T03:10:44.880Z,80.69
2019-03-15T03:11:44.830Z,80.90
2019-03-15T03:12:44.815Z,81.00
2019-03-15T03:13:44.799Z,80.90
2019-03-15T03:14:44.825Z,81.10
2019-03-15T03:15:44.811Z,80.79
2019-03-15T03:16:46.086Z,81.00
2019-03-15T03:17:44.770Z,81.10
2019-03-15T03:18:44.750Z,80.90
2019-03-15T03:19:44.792Z,81.10
2019-03-15T03:20:44.771Z,81.10
2019-03-15T03:21:44.747Z,81.00
2019-03-15T03:22:44.682Z,80.79
2019-03-15T03:23:44.712Z,80.69
2019-03-15T03:24:44.705Z,81.00
2019-03-15T03:25:44.836Z,81.21
2019-03-15T03:26:44.676Z,80.79
2019-03-15T03:27:44.652Z,80.58
2019-03-15T03:28:44.635Z,80.90
2019-03-15T03:29:44.663Z,80.79
2019-03-15T03:30:46.609Z,81.10
2019-03-15T03:31:45.586Z,80.79
2019-03-15T03:32:44.966Z,81.00
2019-03-15T03:33:44.594Z,80.69
2019-03-15T03:34:44.570Z,80.79
2019-03-15T03:35:44.603Z,80.79
2019-03-15T03:36:44.541Z,80.79
2019-03-15T03:37:45.132Z,80.79
2019-03-15T03:38:44.507Z,80.79
2019-03-15T03:39:44.513Z,80.79
2019-03-15T03:40:44.505Z,80.79
2019-03-15T03:41:44.524Z,81.00
2019-03-15T03:42:44.482Z,80.90
2019-03-15T03:43:44.465Z,80.79
2019-03-15T03:44:44.464Z,80.90
2019-03-15T03:45:44.467Z,81.00
2019-03-15T03:46:44.471Z,81.00
2019-03-15T03:47:44.445Z,81.10
2019-03-15T03:48:44.408Z,81.00
2019-03-15T03:49:44.387Z,80.79
2019-03-15T03:50:44.462Z,80.69
2019-03-15T03:51:44.487Z,80.90
2019-03-15T03:52:44.376Z,81.10
2019-03-15T03:53:44.384Z,80.86
2019-03-15T03:54:44.373Z,81.21
2019-03-15T03:55:44.353Z,81.10
2019-03-15T03:56:44.650Z,80.58
2019-03-15T03:57:44.364Z,80.96
2019-03-15T03:58:44.304Z,81.17
2019-03-15T03:59:44.294Z,81.31
2019-03-15T04:00:44.291Z,81.10
2019-03-15T04:01:44.252Z,81.10
2019-03-15T04:02:44.306Z,81.10
2019-03-15T04:03:44.310Z,81.21
2019-03-15T04:04:44.343Z,80.90
2019-03-15T04:05:44.229Z,81.00
2019-03-15T04:06:44.306Z,80.90
2019-03-15T04:07:44.203Z,81.00
2019-03-15T04:08:44.253Z,81.21
2019-03-15T04:09:44.210Z,81.21
2019-03-15T04:10:44.231Z,81.10
2019-03-15T04:11:54.628Z,80.90
2019-03-15T04:12:45.184Z,81.10
2019-03-15T04:13:44.172Z,80.90
2019-03-15T04:14:44.172Z,81.10
2019-03-15T04:15:44.195Z,81.00
2019-03-15T04:16:44.135Z,81.10
2019-03-15T04:17:44.115Z,80.90
2019-03-15T04:18:44.106Z,81.00
2019-03-15T04:19:44.081Z,80.79
2019-03-15T04:20:44.085Z,80.79
2019-03-15T04:21:44.082Z,81.10
2019-03-15T04:22:44.059Z,81.00
2019-03-15T04:23:44.023Z,81.10
2019-03-15T04:24:44.039Z,81.10
2019-03-15T04:25:44.095Z,81.00
2019-03-15T04:26:43.994Z,81.10
2019-03-15T04:27:43.981Z,81.10
2019-03-15T04:28:43.972Z,80.90
2019-03-15T04:29:43.961Z,80.90
2019-03-15T04:30:44.021Z,81.00
2019-03-15T04:31:44.076Z,81.00
2019-03-15T04:32:43.906Z,81.00
2019-03-15T04:33:43.920Z,81.00
2019-03-15T04:34:43.895Z,81.10
2019-03-15T04:35:43.935Z,81.10
2019-03-15T04:36:43.876Z,80.58
2019-03-15T04:37:43.894Z,80.90
2019-03-15T04:38:43.859Z,80.90
2019-03-15T04:39:43.888Z,81.00
2019-03-15T04:40:43.914Z,80.79
2019-03-15T04:41:43.848Z,80.76
2019-03-15T04:42:43.836Z,80.90
2019-03-15T04:43:43.838Z,80.86
2019-03-15T04:44:43.811Z,80.90
2019-03-15T04:45:43.843Z,81.00
2019-03-15T04:46:43.761Z,80.96
2019-03-15T04:47:43.840Z,80.86
2019-03-15T04:48:43.759Z,81.00
2019-03-15T04:49:43.764Z,81.07
2019-03-15T04:50:43.725Z,80.96
2019-03-15T04:51:43.765Z,81.07
2019-03-15T04:52:43.786Z,80.79
2019-03-15T04:53:43.685Z,80.96
2019-03-15T04:54:43.673Z,80.96
2019-03-15T04:55:43.696Z,81.00
2019-03-15T04:56:43.647Z,81.07
2019-03-15T04:57:43.666Z,80.90
2019-03-15T04:58:43.697Z,80.86
2019-03-15T04:59:43.650Z,80.96
2019-03-15T05:00:43.620Z,81.07
2019-03-15T05:01:43.631Z,81.10
2019-03-15T05:02:43.606Z,81.07
2019-03-15T05:03:43.591Z,80.96
2019-03-15T05:04:43.635Z,80.96
2019-03-15T05:05:43.585Z,80.90
2019-03-15T05:06:43.571Z,80.96
2019-03-15T05:07:43.564Z,81.10
2019-03-15T05:08:43.545Z,80.86
2019-03-15T05:09:43.534Z,81.07
2019-03-15T05:10:43.527Z,80.96
2019-03-15T05:11:43.513Z,80.86
2019-03-15T05:12:43.518Z,80.76
2019-03-15T05:13:43.495Z,80.96
2019-03-15T05:14:43.482Z,80.76
2019-03-15T05:15:43.744Z,80.76
2019-03-15T05:16:43.459Z,81.10
2019-03-15T05:17:43.431Z,81.27
2019-03-15T05:18:43.439Z,81.37
2019-03-15T05:19:43.401Z,81.48
2019-03-15T05:20:43.417Z,81.48
2019-03-15T05:21:43.449Z,81.58
2019-03-15T05:22:43.370Z,81.99
2019-03-15T05:23:43.378Z,81.89
2019-03-15T05:24:43.379Z,81.89
2019-03-15T05:25:43.366Z,81.68
2019-03-15T05:26:43.349Z,81.79
2019-03-15T05:27:43.363Z,81.58
2019-03-15T05:28:43.296Z,81.68
2019-03-15T05:29:43.290Z,82.10
2019-03-15T05:30:43.280Z,81.89
2019-03-15T05:31:43.269Z,81.37
2019-03-15T05:32:43.302Z,81.99
2019-03-15T05:33:43.242Z,81.89
2019-03-15T05:34:43.230Z,81.89
2019-03-15T05:35:43.219Z,81.99
2019-03-15T05:36:43.239Z,81.58
2019-03-15T05:37:43.229Z,82.20
2019-03-15T05:38:43.185Z,82.10
2019-03-15T05:39:43.172Z,82.30
2019-03-15T05:40:43.165Z,82.20
2019-03-15T05:41:43.185Z,82.20
2019-03-15T05:42:43.153Z,82.10
2019-03-15T05:43:43.155Z,82.82
2019-03-15T05:44:43.147Z,82.20
2019-03-15T05:45:43.105Z,81.89
2019-03-15T05:46:43.187Z,82.40
2019-03-15T05:47:43.141Z,82.61
2019-03-15T05:48:43.128Z,82.40
2019-03-15T05:49:43.107Z,82.40
2019-03-15T05:50:43.068Z,82.61
2019-03-15T05:51:43.075Z,82.92
2019-03-15T05:52:43.086Z,83.54
2019-03-15T05:53:43.057Z,83.33
2019-03-15T05:54:43.015Z,83.44
2019-03-15T05:55:43.037Z,82.71
2019-03-15T05:56:43.089Z,82.61
2019-03-15T05:57:42.993Z,83.33
2019-03-15T05:58:42.984Z,83.33
2019-03-15T05:59:42.977Z,83.03
2019-03-15T06:00:42.965Z,83.13
2019-03-15T06:01:42.972Z,83.03
2019-03-15T06:02:42.918Z,83.13
2019-03-15T06:03:48.357Z,83.13
2019-03-15T06:04:43.897Z,83.03
2019-03-15T06:05:42.888Z,83.03
2019-03-15T06:06:42.875Z,82.98
2019-03-15T06:07:42.859Z,83.03
2019-03-15T06:08:42.850Z,83.19
2019-03-15T06:09:42.867Z,82.82
2019-03-15T06:10:42.830Z,82.92
2019-03-15T06:11:43.226Z,82.82
2019-03-15T06:12:42.831Z,82.89
2019-03-15T06:13:42.795Z,83.03
2019-03-15T06:14:42.797Z,83.23
2019-03-15T06:15:42.794Z,83.19
2019-03-15T06:16:42.780Z,82.92
2019-03-15T06:17:42.848Z,82.92
2019-03-15T06:18:42.776Z,83.33
2019-03-15T06:19:42.757Z,83.03
2019-03-15T06:20:42.725Z,83.03
2019-03-15T06:21:42.725Z,82.89
2019-03-15T06:22:42.731Z,83.03
2019-03-15T06:23:42.669Z,82.82
2019-03-15T06:24:42.660Z,83.09
2019-03-15T06:25:42.669Z,83.03
2019-03-15T06:26:42.696Z,82.92
2019-03-15T06:27:42.641Z,82.92
2019-03-15T06:28:42.683Z,83.03
2019-03-15T06:29:42.623Z,82.71
2019-03-15T06:30:42.617Z,82.89
2019-03-15T06:31:42.640Z,83.03
2019-03-15T06:32:42.605Z,82.82
2019-03-15T06:33:42.603Z,82.92
2019-03-15T06:34:42.584Z,83.13
2019-03-15T06:35:42.558Z,83.03
2019-03-15T06:36:42.568Z,82.78
2019-03-15T06:37:42.555Z,82.98
2019-03-15T06:38:42.600Z,82.89
2019-03-15T06:39:42.509Z,82.78
2019-03-15T06:40:42.527Z,83.09
2019-03-15T06:41:42.489Z,82.98
2019-03-15T06:42:42.480Z,82.98
2019-03-15T06:43:42.474Z,82.98
2019-03-15T06:44:42.527Z,83.09
2019-03-15T06:45:42.461Z,82.78
2019-03-15T06:46:42.470Z,82.98
2019-03-15T06:47:42.725Z,82.89
2019-03-15T06:48:45.055Z,82.89
2019-03-15T06:49:42.424Z,82.78
2019-03-15T06:50:42.411Z,83.09
2019-03-15T06:51:42.372Z,82.98
2019-03-15T06:52:42.404Z,82.98
2019-03-15T06:53:42.379Z,82.89
2019-03-15T06:54:42.344Z,83.09
2019-03-15T06:55:42.385Z,82.98
2019-03-15T06:56:42.331Z,83.19
2019-03-15T06:57:42.306Z,82.89
2019-03-15T06:58:42.316Z,82.89
2019-03-15T06:59:42.342Z,82.78
2019-03-15T07:00:42.269Z,83.19
2019-03-15T07:01:42.263Z,83.19
2019-03-15T07:02:42.331Z,83.05
2019-03-15T07:03:42.252Z,82.68
2019-03-15T07:04:42.257Z,82.68
2019-03-15T07:05:42.251Z,83.19
2019-03-15T07:06:42.901Z,83.56
2019-03-15T07:07:42.232Z,83.40
2019-03-15T07:08:42.199Z,83.19
2019-03-15T07:09:42.206Z,83.19
2019-03-15T07:10:44.153Z,83.29
2019-03-15T07:11:42.135Z,83.61
2019-03-15T07:12:42.146Z,83.98
2019-03-15T07:13:42.111Z,83.26
2019-03-15T07:14:42.472Z,82.84
2019-03-15T07:15:44.369Z,83.56
2019-03-15T07:16:42.099Z,83.36
2019-03-15T07:17:42.090Z,83.05
2019-03-15T07:18:42.085Z,83.05
2019-03-15T07:19:42.047Z,83.98
2019-03-15T07:20:42.039Z,83.26
2019-03-15T07:21:42.024Z,83.67
2019-03-15T07:22:42.059Z,83.36
2019-03-15T07:23:42.003Z,83.26
2019-03-15T07:24:43.685Z,83.26
2019-03-15T07:25:42.062Z,83.26
2019-03-15T07:26:43.690Z,83.73
2019-03-15T07:27:43.010Z,83.12
2019-03-15T07:28:41.976Z,83.26
2019-03-15T07:29:41.988Z,83.26
2019-03-15T07:30:41.978Z,83.67
2019-03-15T07:31:41.940Z,83.87
2019-03-15T07:32:41.932Z,83.22
2019-03-15T07:33:41.940Z,83.67
2019-03-15T07:34:41.961Z,83.12
2019-03-15T07:35:41.891Z,83.67
2019-03-15T07:36:42.681Z,83.47
2019-03-15T07:37:45.140Z,83.73
2019-03-15T07:38:41.863Z,83.67
2019-03-15T07:39:41.900Z,83.77
2019-03-15T07:40:41.864Z,83.53
2019-03-15T07:41:41.824Z,83.94
2019-03-15T07:42:41.847Z,84.05
2019-03-15T07:43:41.782Z,83.94
2019-03-15T07:44:41.840Z,83.94
2019-03-15T07:45:41.762Z,84.05
2019-03-15T07:46:41.771Z,84.14
2019-03-15T07:47:41.768Z,83.84
2019-03-15T07:48:41.730Z,83.94
2019-03-15T07:49:41.719Z,84.25
2019-03-15T07:50:41.762Z,84.14
2019-03-15T07:51:41.711Z,84.56
2019-03-15T07:52:41.693Z,84.45
2019-03-15T07:53:41.683Z,84.70
2019-03-15T07:54:41.665Z,84.66
2019-03-15T07:55:41.658Z,84.56
2019-03-15T07:56:41.687Z,85.28
2019-03-15T07:57:41.646Z,84.97
2019-03-15T07:58:41.620Z,84.97
2019-03-15T07:59:41.619Z,85.07
2019-03-15T08:00:41.604Z,84.45
2019-03-15T08:01:41.583Z,85.17
2019-03-15T08:02:41.609Z,85.38
2019-03-15T08:03:41.586Z,85.38
2019-03-15T08:04:41.553Z,85.59
2019-03-15T08:05:41.568Z,85.79
2019-03-15T08:06:41.536Z,85.49
2019-03-15T08:07:45.219Z,85.49
2019-03-15T08:08:41.610Z,85.69
2019-03-15T08:09:41.533Z,85.49
2019-03-15T08:10:41.508Z,85.89
2019-03-15T08:11:41.535Z,86.21
2019-03-15T08:12:41.491Z,86.06
2019-03-15T08:13:41.456Z,86.52
2019-03-15T08:14:41.468Z,86.41
2019-03-15T08:15:41.462Z,86.61
2019-03-15T08:16:41.426Z,87.24
2019-03-15T08:17:41.479Z,87.13
2019-03-15T08:18:41.398Z,86.93
2019-03-15T08:19:41.394Z,87.13
2019-03-15T08:20:41.399Z,87.03
2019-03-15T08:21:41.376Z,86.72
2019-03-15T08:22:41.368Z,86.82
2019-03-15T08:23:41.344Z,87.24
2019-03-15T08:24:50.950Z,86.99
2019-03-15T08:25:42.373Z,86.93
2019-03-15T08:26:41.313Z,87.34
2019-03-15T08:27:41.352Z,87.03
2019-03-15T08:28:41.326Z,88.02
2019-03-15T08:29:41.281Z,87.30
2019-03-15T08:30:41.284Z,87.24
2019-03-15T08:31:41.261Z,87.51
2019-03-15T08:32:43.297Z,87.51
2019-03-15T08:33:41.244Z,87.65
2019-03-15T08:34:41.265Z,87.96
2019-03-15T08:35:41.265Z,88.37
2019-03-15T08:36:41.203Z,88.26
2019-03-15T08:37:41.195Z,88.37
2019-03-15T08:38:47.387Z,88.33
2019-03-15T08:39:42.294Z,88.17
2019-03-15T08:40:41.265Z,87.92
2019-03-15T08:41:41.149Z,87.85
2019-03-15T08:42:41.139Z,87.81
2019-03-15T08:43:41.155Z,87.85
2019-03-15T08:44:41.117Z,88.17
2019-03-15T08:45:41.143Z,88.26
2019-03-15T08:46:41.098Z,88.53
2019-03-15T08:47:41.078Z,88.84
2019-03-15T08:48:41.095Z,88.68
2019-03-15T08:49:41.058Z,89.19
2019-03-15T08:50:41.051Z,89.29
2019-03-15T08:51:41.066Z,88.99
2019-03-15T08:52:42.213Z,88.89
2019-03-15T08:53:41.062Z,88.89
2019-03-15T08:54:41.006Z,88.68
2019-03-15T08:55:41.063Z,89.40
2019-03-15T08:56:40.986Z,89.71
2019-03-15T08:57:40.985Z,89.36
2019-03-15T08:58:40.963Z,89.36
2019-03-15T08:59:52.781Z,89.61
2019-03-15T09:00:41.949Z,89.56
2019-03-15T09:01:40.924Z,89.46
2019-03-15T09:02:40.918Z,89.56
2019-03-15T09:03:40.956Z,89.56
2019-03-15T09:04:40.900Z,89.67
2019-03-15T09:05:40.888Z,89.56
2019-03-15T09:06:41.234Z,89.56
2019-03-15T09:07:40.884Z,89.46
2019-03-15T09:08:40.907Z,89.25
2019-03-15T09:09:40.884Z,89.46
2019-03-15T09:10:40.853Z,89.67
2019-03-15T09:11:40.821Z,89.67
2019-03-15T09:12:40.832Z,90.14
2019-03-15T09:13:40.821Z,89.87
2019-03-15T09:14:40.787Z,89.97
2019-03-15T09:15:40.799Z,89.87
2019-03-15T09:16:40.797Z,89.83
2019-03-15T09:17:40.776Z,90.24
2019-03-15T09:18:40.797Z,89.83
2019-03-15T09:19:40.761Z,90.03
2019-03-15T09:20:40.749Z,89.94
2019-03-15T09:21:40.751Z,90.55
2019-03-15T09:22:40.694Z,90.59
2019-03-15T09:23:40.725Z,90.69
2019-03-15T09:24:40.723Z,91.11
2019-03-15T09:25:40.664Z,90.80
2019-03-15T09:26:40.693Z,90.75
2019-03-15T09:27:40.705Z,90.75
2019-03-15T09:28:40.703Z,90.90
2019-03-15T09:29:40.623Z,90.69
2019-03-15T09:30:40.609Z,91.31
2019-03-15T09:31:47.657Z,91.00
2019-03-15T09:32:41.586Z,90.86
2019-03-15T09:33:40.593Z,91.27
2019-03-15T09:34:40.667Z,91.27
2019-03-15T09:35:40.669Z,90.90
2019-03-15T09:36:49.894Z,91.42
2019-03-15T09:37:41.534Z,91.38
2019-03-15T09:38:40.604Z,91.21
2019-03-15T09:39:40.524Z,91.47
2019-03-15T09:40:40.500Z,91.62
2019-03-15T09:41:40.529Z,92.10
2019-03-15T09:42:40.484Z,91.58
2019-03-15T09:43:40.488Z,91.58
2019-03-15T09:44:40.452Z,91.58
2019-03-15T09:45:40.466Z,91.44
2019-03-15T09:46:40.508Z,91.53
2019-03-15T09:47:40.423Z,91.53
2019-03-15T09:48:43.540Z,91.89
2019-03-15T09:49:40.397Z,91.85
2019-03-15T09:50:51.018Z,91.74
2019-03-15T09:51:41.373Z,91.95
2019-03-15T09:52:40.365Z,92.05
2019-03-15T09:53:40.393Z,92.46
2019-03-15T09:54:40.345Z,91.85
2019-03-15T09:55:40.339Z,92.36
2019-03-15T09:56:40.351Z,92.36
2019-03-15T09:57:40.316Z,92.46
2019-03-15T09:58:40.308Z,92.50
2019-03-15T09:59:40.315Z,92.67
2019-03-15T10:00:40.280Z,93.12
2019-03-15T10:01:40.287Z,92.97
2019-03-15T10:02:40.279Z,92.97
2019-03-15T10:03:40.301Z,92.87
2019-03-15T10:04:40.285Z,92.36
2019-03-15T10:05:40.236Z,92.97
2019-03-15T10:06:40.224Z,92.36
2019-03-15T10:07:43.142Z,92.36
2019-03-15T10:08:40.219Z,92.87
2019-03-15T10:09:45.718Z,93.18
2019-03-15T10:10:41.166Z,93.08
2019-03-15T10:11:40.166Z,92.77
2019-03-15T10:12:40.158Z,92.77
2019-03-15T10:13:40.174Z,92.63
2019-03-15T10:14:40.149Z,93.29
2019-03-15T10:15:40.247Z,92.93
2019-03-15T10:16:40.178Z,92.97
2019-03-15T10:17:40.099Z,93.04
2019-03-15T10:18:40.091Z,93.49
2019-03-15T10:19:40.107Z,93.59
2019-03-15T10:20:40.086Z,93.55
2019-03-15T10:21:40.051Z,93.65
2019-03-15T10:22:40.045Z,94.37
2019-03-15T10:23:40.050Z,94.17
2019-03-15T10:24:40.027Z,93.76
2019-03-15T10:25:46.634Z,93.96
2019-03-15T10:26:40.999Z,93.55
2019-03-15T10:27:40.001Z,94.17
2019-03-15T10:28:40.006Z,94.27
2019-03-15T10:29:39.987Z,94.78
2019-03-15T10:30:39.961Z,94.74
2019-03-15T10:31:39.961Z,94.37
2019-03-15T10:32:39.933Z,94.58
2019-03-15T10:33:49.899Z,94.54
2019-03-15T10:34:40.926Z,94.54
2019-03-15T10:35:39.898Z,94.33
2019-03-15T10:36:39.886Z,95.05
2019-03-15T10:37:39.891Z,95.25
2019-03-15T10:38:39.910Z,95.15
2019-03-15T10:39:39.860Z,95.36
2019-03-15T10:40:39.847Z,94.95
2019-03-15T10:41:39.831Z,94.84
2019-03-15T10:42:39.861Z,95.15
2019-03-15T10:43:39.857Z,95.01
2019-03-15T10:44:39.853Z,95.21
2019-03-15T10:45:39.813Z,95.62
2019-03-15T10:46:40.619Z,95.31
2019-03-15T10:47:42.288Z,95.52
2019-03-15T10:48:39.903Z,95.42
2019-03-15T10:49:39.743Z,95.42
2019-03-15T10:50:39.760Z,95.83
2019-03-15T10:51:39.740Z,96.03
2019-03-15T10:52:39.786Z,95.68
2019-03-15T10:53:39.772Z,95.93
2019-03-15T10:54:39.769Z,95.93
2019-03-15T10:55:39.749Z,95.98
2019-03-15T10:56:39.703Z,95.68
2019-03-15T10:57:39.678Z,96.19
2019-03-15T10:58:39.670Z,95.98
2019-03-15T10:59:39.743Z,95.78
2019-03-15T11:00:39.755Z,96.09
2019-03-15T11:01:39.710Z,96.09
2019-03-15T11:02:39.673Z,95.89
2019-03-15T11:03:39.636Z,95.94
2019-03-15T11:04:39.611Z,96.04
2019-03-15T11:05:39.572Z,95.89
2019-03-15T11:06:39.620Z,96.15
2019-03-15T11:07:39.549Z,96.15
2019-03-15T11:08:39.578Z,95.78
2019-03-15T11:09:39.553Z,96.56
2019-03-15T11:10:39.515Z,96.25
2019-03-15T11:11:39.534Z,96.51
2019-03-15T11:12:39.514Z,96.56
2019-03-15T11:13:39.571Z,96.51
2019-03-15T11:14:39.471Z,96.82
2019-03-15T11:15:39.504Z,95.69
2019-03-15T11:16:39.451Z,95.49
2019-03-15T11:17:39.667Z,95.75
2019-03-15T11:18:39.516Z,96.06
2019-03-15T11:19:39.414Z,95.54
2019-03-15T11:20:39.465Z,95.70
2019-03-15T11:21:39.398Z,95.95
2019-03-15T11:22:39.383Z,95.40
2019-03-15T11:23:39.405Z,95.20
2019-03-15T11:24:39.383Z,95.29
2019-03-15T11:25:39.347Z,95.20
2019-03-15T11:26:39.391Z,95.50
2019-03-15T11:27:39.350Z,95.29
2019-03-15T11:28:39.348Z,94.99
2019-03-15T11:29:39.357Z,94.89
2019-03-15T11:30:39.346Z,94.99
2019-03-15T11:31:39.318Z,95.09
2019-03-15T11:32:39.284Z,94.74
2019-03-15T11:33:39.266Z,94.58
2019-03-15T11:34:39.298Z,94.74
2019-03-15T11:35:39.242Z,94.95
2019-03-15T11:36:39.269Z,94.95
2019-03-15T11:37:39.224Z,94.54
2019-03-15T11:38:39.253Z,94.43
2019-03-15T11:39:39.218Z,94.54
2019-03-15T11:40:39.213Z,94.43
2019-03-15T11:41:39.216Z,93.92
2019-03-15T11:42:39.186Z,93.37
2019-03-15T11:43:39.170Z,93.47
2019-03-15T11:44:39.179Z,93.22
2019-03-15T11:45:39.147Z,93.12
2019-03-15T11:46:39.150Z,92.40
2019-03-15T11:47:56.371Z,92.15
2019-03-15T11:48:40.152Z,92.05
2019-03-15T11:49:39.134Z,91.85
2019-03-15T11:50:39.101Z,91.85
2019-03-15T11:51:42.328Z,91.39
2019-03-15T11:52:39.055Z,90.78
2019-03-15T11:53:39.055Z,90.33
2019-03-15T11:54:39.083Z,90.74
2019-03-15T11:55:39.069Z,90.53
2019-03-15T11:56:39.009Z,90.08
2019-03-15T11:57:39.001Z,89.58
2019-03-15T11:58:38.989Z,89.26
2019-03-15T11:59:39.041Z,88.45
2019-03-15T12:00:38.966Z,88.10
2019-03-15T12:01:38.976Z,88.71
2019-03-15T12:02:38.949Z,88.65
2019-03-15T12:03:52.113Z,87.70
2019-03-15T12:04:39.943Z,87.49
2019-03-15T12:05:38.938Z,87.59
2019-03-15T12:06:38.901Z,87.18
2019-03-15T12:07:38.942Z,87.49
2019-03-15T12:08:38.878Z,87.08
2019-03-15T12:09:41.004Z,87.18
2019-03-15T12:10:38.908Z,87.70
2019-03-15T12:11:38.861Z,86.57
2019-03-15T12:12:38.862Z,86.73
2019-03-15T12:13:38.824Z,86.63
2019-03-15T12:14:41.181Z,86.02
2019-03-15T12:15:38.802Z,86.53
2019-03-15T12:16:38.805Z,85.65
2019-03-15T12:17:39.640Z,85.55
2019-03-15T12:18:38.809Z,85.00
2019-03-15T12:19:38.771Z,84.74
2019-03-15T12:20:38.776Z,85.14
2019-03-15T12:21:38.757Z,84.74
2019-03-15T12:22:38.769Z,84.63
2019-03-15T12:23:38.738Z,85.30
2019-03-15T12:24:38.790Z,85.75
2019-03-15T12:25:38.715Z,85.96
2019-03-15T12:26:40.423Z,86.16
2019-03-15T12:27:38.722Z,85.86
2019-03-15T12:28:38.949Z,87.08
2019-03-15T12:29:38.679Z,86.88
2019-03-15T12:30:38.656Z,86.98
2019-03-15T12:31:38.647Z,86.57
2019-03-15T12:32:38.634Z,87.12
2019-03-15T12:33:38.748Z,86.77
2019-03-15T12:34:38.668Z,86.82
2019-03-15T12:35:38.650Z,87.29
2019-03-15T12:36:38.614Z,87.18
2019-03-15T12:37:38.561Z,87.63
2019-03-15T12:38:38.628Z,87.43
2019-03-15T12:39:39.127Z,87.32
2019-03-15T12:40:38.584Z,87.63
2019-03-15T12:41:38.574Z,87.63
2019-03-15T12:42:38.565Z,86.91
2019-03-15T12:43:38.492Z,87.53
2019-03-15T12:44:38.548Z,87.49
2019-03-15T12:45:38.491Z,87.79
2019-03-15T12:46:38.471Z,87.32
2019-03-15T12:47:38.525Z,87.49
2019-03-15T12:48:38.474Z,86.91
2019-03-15T12:49:38.428Z,86.77
2019-03-15T12:50:38.468Z,87.43
2019-03-15T12:51:38.440Z,86.91
2019-03-15T12:52:47.192Z,87.32